• Join FlightAware (Why Join?)
  • Login
  • US Flag 
03:58PM EDT


 

Airport Tracker/Info


-or-


 

Live Flight TrackerFlight Track Log ✈ N800JH ✈ 28-Apr-2013 ✈ KEGE - KADS

Flight Track Log - Related Links

Times and Time Zones

All times are in EDT time to prevent confusion due to time zone crossing. See the N800JH flight status page for this flight to view local times or setup timezone preferences in your user account.

Time Position Orientation Groundspeed Altitude Reporting Facility
EDT Latitude Longitude Course Direction KTS MPH feet Rate Location/Type
01:57PM 39.6233 -106.9583 123° Southeast 207 238 8,500  Level Denver Center
01:59PM 39.6194 -107.0328 266° West 258 297 11,800 3,300 Climbing Denver Center
02:00PM 39.7150 -107.0667 345° North 321 369 15,400 3,180 Climbing Denver Center
02:01PM 39.7992 -107.0047 29° Northeast 390 449 18,400 3,000 Climbing Denver Center
02:02PM 39.8825 -106.2650 123° Southeast  Level FlightAware Approximate
02:02PM 39.8336 -106.8581 73° East 425 489 21,700  Level Denver Center
02:03PM 39.8114 -106.1394 123° Southeast  Level FlightAware Approximate
02:03PM 39.8342 -106.6931 90° East 451 519 25,000  Level Denver Center
02:04PM 39.8331 -106.5233 90° East 464 534 27,000 2,220 Climbing Denver Center
02:05PM 39.8225 -106.3417 94° East 479 551 29,700 2,640 Climbing Denver Center
02:06PM 39.7469 -106.1914 123° Southeast 492 566 32,500 2,700 Climbing Denver Center
02:07PM 39.6606 -106.0539 129° Southeast 489 563 35,300 2,700 Climbing Denver Center
02:08PM 39.5600 -105.8956 129° Southeast 486 559 38,100 2,460 Climbing Denver Center
02:09PM 39.4733 -105.7575 129° Southeast 491 565 40,400 1,800 Climbing Denver Center
02:10PM 39.3861 -105.6231 130° Southeast 486 559 41,900 1,080 Climbing Denver Center
02:11PM 39.2978 -105.4858 130° Southeast 492 566 42,700 840 Climbing Denver Center
02:12PM 39.2117 -105.3519 130° Southeast 485 558 43,700 960 Climbing Denver Center
02:13PM 39.1250 -105.2175 130° Southeast 486 559 44,700 1,080 Climbing Denver Center
02:14PM 39.0239 -105.0606 130° Southeast 486 559 46,000 1,020 Climbing Denver Center
02:15PM 38.9364 -104.9275 130° Southeast 485 558 46,900 480 Climbing Denver Center
02:16PM 38.8489 -104.7939 130° Southeast 486 559 47,000  Climbing Denver Center
02:17PM 38.7586 -104.6564 130° Southeast 497 572 47,000  Level Denver Center
02:18PM 38.6597 -104.5236 134° Southeast 505 581 47,000  Level Denver Center
02:19PM 38.5653 -104.3981 134° Southeast 490 564 47,000  Level Denver Center
02:20PM 38.4669 -104.2733 135° Southeast 493 567 47,000  Level Denver Center
02:21PM 38.3511 -104.1228 134° Southeast 503 579 47,000  Level Denver Center
02:22PM 38.2528 -103.9939 134° Southeast 493 567 47,000  Level Denver Center
02:23PM 38.1614 -103.8767 135° Southeast 486 559 47,000  Level Denver Center
02:24PM 38.0717 -103.7572 134° Southeast 486 559 47,000  Level Denver Center
02:25PM 37.9658 -103.6161 134° Southeast 491 565 47,000  Level Denver Center
02:26PM 37.8761 -103.4969 134° Southeast 486 559 47,000  Level Denver Center
02:27PM 37.7711 -103.3586 134° Southeast 484 557 47,000  Level Denver Center
02:28PM 37.6872 -103.2336 130° Southeast 485 558 47,000  Level Denver Center
02:30PM 37.5889 -103.0881 130° Southeast 486 559 47,000  Level Denver Center
02:31PM 37.5039 -102.9611 130° Southeast 491 565 47,000  Level Denver Center
02:32PM 37.4186 -102.8375 131° Southeast 489 563 47,000  Level Denver Center
02:33PM 37.3208 -102.6944 131° Southeast 483 556 47,000  Level Denver Center
02:33PM 37.3078 -102.6744 129° Southeast 484 557 47,000  Level Albuquerque Center
02:34PM 37.2086 -102.5294 131° Southeast 487 560 47,000  Level Albuquerque Center
02:35PM 37.1389 -102.4286 131° Southeast 491 565 47,000  Level Albuquerque Center
02:36PM 37.0383 -102.2850 131° Southeast 492 566 47,000  Level Albuquerque Center
02:37PM 36.9542 -102.1614 130° Southeast 491 565 47,000  Level Albuquerque Center
02:38PM 36.8544 -102.0189 131° Southeast 490 564 47,000  Level Albuquerque Center
02:39PM 36.7672 -101.8956 131° Southeast 495 570 47,000  Level Albuquerque Center
02:40PM 36.6664 -101.7514 131° Southeast 495 570 47,000  Level Albuquerque Center
02:41PM 36.5806 -101.6297 131° Southeast 493 567 47,000  Level Albuquerque Center
02:42PM 36.4786 -101.4847 131° Southeast 497 572 47,000  Level Albuquerque Center
02:43PM 36.3908 -101.3625 132° Southeast 497 572 47,000  Level Albuquerque Center
02:44PM 36.3053 -101.2417 131° Southeast 493 567 47,000  Level Albuquerque Center
02:45PM 36.1994 -101.0936 132° Southeast 494 568 47,000  Level Albuquerque Center
02:46PM 36.1078 -100.9661 132° Southeast 494 568 47,000  Level Albuquerque Center
02:47PM 36.0175 -100.8406 132° Southeast 490 564 47,000  Level Albuquerque Center
02:48PM 35.9269 -100.7147 132° Southeast 489 563 47,000  Level Albuquerque Center
02:49PM 35.8358 -100.5906 132° Southeast 489 563 47,000  Level Albuquerque Center
02:50PM 35.7278 -100.4414 132° Southeast 488 562 47,000  Level Albuquerque Center
02:51PM 35.6369 -100.3175 132° Southeast 487 560 47,000  Level Albuquerque Center
02:52PM 35.5469 -100.1956 132° Southeast 485 558 47,000  Level Albuquerque Center
02:53PM 35.4564 -100.0733 132° Southeast 483 556 47,000  Level Albuquerque Center
02:54PM 35.3658 -99.9506 132° Southeast 485 558 47,000  Level Albuquerque Center
02:55PM 35.2747 -99.8278 132° Southeast 488 562 47,000  Level Albuquerque Center
02:56PM 35.1656 -99.6817 132° Southeast 486 559 47,000  Level Albuquerque Center
02:57PM 35.1094 -99.6089 133° Southeast 483 556 47,000  Level Fort Worth Center
02:58PM 35.0178 -99.4847 132° Southeast 488 562 47,000  Level Fort Worth Center
02:59PM 34.9217 -99.3658 135° Southeast 488 562 47,000 -300 Level Fort Worth Center
03:00PM 34.7953 -99.3025 158° South 483 556 46,400 -780 Descending Fort Worth Center
03:01PM 34.6731 -99.2517 161° South 466 536 45,500 -900 Descending Fort Worth Center
03:02PM 34.5506 -99.2061 163° South 466 536 44,600 -1,080 Descending Fort Worth Center
03:03PM 34.4242 -99.1558 162° South 471 542 43,400 -1,080 Descending Fort Worth Center
03:04PM 34.3267 -99.1161 161° South 471 542 42,500 -1,800 Descending Fort Worth Center
03:05PM 34.2089 -99.0208 146° Southeast 466 536 39,800 -2,700 Descending Fort Worth Center
03:06PM 34.1417 -98.8789 120° Southeast 461 531 37,200 -2,400 Descending Fort Worth Center
03:07PM 34.0744 -98.7350 119° Southeast 468 539 35,000 -1,980 Descending Fort Worth Center
03:08PM 34.0069 -98.5936 120° Southeast 485 558 33,300 -2,280 Descending Fort Worth Center
03:09PM 33.9394 -98.4600 121° Southeast 485 558 30,500 -2,700 Descending Fort Worth Center
03:10PM 33.8778 -98.3242 119° Southeast 473 544 27,900 -2,520 Descending Fort Worth Center
03:11PM 33.8161 -98.2008 121° Southeast 440 506 25,500 -2,400 Descending Fort Worth Center
03:12PM 33.7522 -98.0756 121° Southeast 413 475 23,200 -2,340 Descending Fort Worth Center
03:13PM 33.6983 -97.9628 120° Southeast 402 463 20,900 -2,220 Descending Fort Worth Center
03:14PM 33.6444 -97.8575 122° Southeast 386 444 18,800 -2,160 Descending Fort Worth Center
03:15PM 33.5928 -97.7525 121° Southeast 374 430 16,600 -2,160 Descending Fort Worth Center
03:16PM 33.5386 -97.6478 122° Southeast 368 423 14,500 -2,100 Descending Fort Worth Center
03:17PM 33.4886 -97.5456 120° Southeast 363 418 12,500 -1,860 Descending Fort Worth Center
03:18PM 33.4428 -97.4633 124° Southeast 343 395 10,800 -1,620 Descending Fort Worth Center
03:19PM 33.3950 -97.3736 123° Southeast 308 354 9,300 -1,320 Descending Fort Worth Center
03:20PM 33.3886 -97.2867 95° East 285 328 8,200 -1,200 Descending Fort Worth Center
03:21PM 33.3864 -97.1797 91° East 285 328 7,000 -1,140 Descending Fort Worth Center
03:22PM 33.3800 -97.0925 95° East 275 316 6,000 -1,080 Descending Fort Worth Center
03:23PM 33.3756 -97.0106 94° East 255 293 4,900 -1,020 Descending Fort Worth Center
03:24PM 33.3275 -96.9858 157° South 175 201 4,000 -900 Descending Fort Worth Center
03:25PM 33.2606 -96.9686 168° South 213 245 3,200 -540 Descending Fort Worth Center
03:26PM 33.2061 -96.9442 159° South 236 272 3,000 -120 Descending Fort Worth Center
03:27PM 33.1414 -96.9172 161° South 236 272 3,000  Level Fort Worth Center
03:28PM 33.0911 -96.8953 160° South 225 259 3,000 -480 Level Fort Worth Center
03:29PM 33.0431 -96.8708 157° South 186 214 2,100 -840 Descending Fort Worth Center
03:30PM 33.0158 -96.8586 159° South 138 159 1,400 -720 Descending Fort Worth Center
03:32PM 32.9667 -96.8333 128° Southeast  Level FlightAware Approximate
03:39PM 32.9686 -96.8364 128° Southeast  Level Estimated